createdAt,value
2022-08-30T00:00:36.469Z,20.85
2022-08-30T00:03:09.068Z,20.71
2022-08-30T00:05:43.372Z,20.76
2022-08-30T00:08:14.226Z,20.77
2022-08-30T00:10:45.104Z,20.82
2022-08-30T00:13:16.606Z,20.79
2022-08-30T00:15:47.742Z,20.88
2022-08-30T00:18:18.870Z,20.83
2022-08-30T00:20:53.178Z,20.83
2022-08-30T00:23:23.934Z,20.76
2022-08-30T00:25:54.110Z,20.87
2022-08-30T00:28:25.136Z,20.89
2022-08-30T00:30:55.803Z,20.84
2022-08-30T00:33:26.641Z,20.91
2022-08-30T00:35:59.571Z,20.81
2022-08-30T00:38:30.074Z,20.81
2022-08-30T00:41:00.498Z,20.71
2022-08-30T00:43:34.253Z,20.79
2022-08-30T00:46:08.760Z,20.74
2022-08-30T00:48:42.767Z,20.67
2022-08-30T00:51:17.730Z,20.61
2022-08-30T00:53:52.431Z,20.71
2022-08-30T00:56:22.768Z,20.78
2022-08-30T00:58:57.270Z,20.61
2022-08-30T01:01:28.372Z,20.54
2022-08-30T01:04:03.272Z,20.54
2022-08-30T01:06:37.208Z,20.49
2022-08-30T01:09:08.108Z,20.48
2022-08-30T01:11:42.369Z,20.49
2022-08-30T01:14:13.948Z,20.45
2022-08-30T01:16:47.082Z,20.46
2022-08-30T01:19:31.336Z,20.43
2022-08-30T01:22:08.685Z,20.42
2022-08-30T01:24:41.857Z,20.53
2022-08-30T01:27:12.641Z,20.50
2022-08-30T01:29:45.204Z,20.42
2022-08-30T01:32:21.240Z,20.34
2022-08-30T01:34:51.765Z,20.36
2022-08-30T01:37:24.997Z,20.43
2022-08-30T01:39:58.194Z,20.29
2022-08-30T01:42:28.960Z,20.23
2022-08-30T01:44:59.110Z,20.24
2022-08-30T01:47:29.677Z,20.20
2022-08-30T01:50:00.132Z,20.14
2022-08-30T01:52:31.253Z,20.10
2022-08-30T01:55:04.321Z,20.21
2022-08-30T01:57:34.490Z,20.13
2022-08-30T02:00:04.922Z,20.11
2022-08-30T02:02:44.435Z,20.05
2022-08-30T02:05:16.186Z,19.93
2022-08-30T02:07:46.755Z,20.04
2022-08-30T02:10:20.899Z,20.05
2022-08-30T02:12:52.742Z,20.10
2022-08-30T02:15:23.092Z,20.02
2022-08-30T02:17:54.139Z,19.95
2022-08-30T02:20:24.653Z,20.01
2022-08-30T02:22:56.728Z,19.92
2022-08-30T02:25:32.423Z,19.85
2022-08-30T02:28:02.598Z,19.82
2022-08-30T02:30:33.098Z,19.90
2022-08-30T02:33:04.330Z,19.77
2022-08-30T02:35:34.834Z,19.80
2022-08-30T02:38:05.046Z,19.74
2022-08-30T02:40:39.181Z,19.83
2022-08-30T02:43:09.539Z,19.71
2022-08-30T02:45:40.009Z,19.66
2022-08-30T02:48:10.214Z,19.63
2022-08-30T02:50:43.544Z,19.63
2022-08-30T02:53:16.397Z,19.58
2022-08-30T02:55:50.198Z,19.52
2022-08-30T02:58:20.588Z,19.51
2022-08-30T03:00:50.815Z,19.56
2022-08-30T03:03:22.881Z,19.57
2022-08-30T03:05:53.329Z,19.55
2022-08-30T03:08:23.517Z,19.51
2022-08-30T03:10:57.087Z,19.54
2022-08-30T03:13:27.811Z,19.51
2022-08-30T03:15:58.342Z,19.48
2022-08-30T03:18:29.736Z,19.44
2022-08-30T03:21:00.046Z,19.53
2022-08-30T03:23:30.348Z,19.44
2022-08-30T03:26:03.125Z,19.44
2022-08-30T03:28:36.482Z,19.39
2022-08-30T03:31:07.269Z,19.40
2022-08-30T03:33:37.897Z,19.33
2022-08-30T03:36:08.536Z,19.36
2022-08-30T03:38:39.015Z,19.35
2022-08-30T03:41:11.909Z,19.34
2022-08-30T03:43:43.371Z,19.29
2022-08-30T03:46:14.979Z,19.30
2022-08-30T03:48:45.672Z,19.26
2022-08-30T03:51:16.037Z,19.23
2022-08-30T03:53:46.235Z,19.19
2022-08-30T03:56:20.088Z,19.21
2022-08-30T03:58:50.498Z,19.22
2022-08-30T04:01:21.066Z,19.14
2022-08-30T04:03:51.258Z,19.12
2022-08-30T04:06:21.473Z,19.06
2022-08-30T04:08:51.801Z,19.12
2022-08-30T04:11:24.673Z,19.11
2022-08-30T04:13:56.355Z,19.12
2022-08-30T04:16:27.541Z,19.07
2022-08-30T04:19:00.322Z,19.10
2022-08-30T04:21:30.439Z,19.10
2022-08-30T04:24:00.781Z,19.05
2022-08-30T04:26:33.649Z,19.06
2022-08-30T04:29:03.806Z,19.08
2022-08-30T04:31:34.375Z,19.03
2022-08-30T04:34:04.912Z,19.05
2022-08-30T04:36:35.270Z,19.12
2022-08-30T04:39:05.460Z,19.18
2022-08-30T04:41:40.889Z,19.16
2022-08-30T04:44:14.127Z,19.21
2022-08-30T04:46:49.333Z,19.11
2022-08-30T04:49:19.460Z,19.14
2022-08-30T04:51:49.781Z,19.13
2022-08-30T04:54:20.039Z,19.16
2022-08-30T04:56:52.992Z,19.13
2022-08-30T04:59:23.170Z,19.13
2022-08-30T05:01:53.268Z,19.16
2022-08-30T05:04:23.602Z,19.19
2022-08-30T05:06:54.093Z,19.27
2022-08-30T05:09:24.608Z,19.28
2022-08-30T05:11:57.665Z,19.31
2022-08-30T05:14:27.786Z,19.29
2022-08-30T05:16:57.891Z,19.45
2022-08-30T05:19:28.059Z,19.44
2022-08-30T05:21:58.193Z,19.50
2022-08-30T05:24:29.441Z,19.47
2022-08-30T05:27:02.611Z,19.52
2022-08-30T05:29:34.111Z,19.51
2022-08-30T05:32:04.280Z,19.53
2022-08-30T05:34:34.874Z,19.55
2022-08-30T05:37:05.650Z,19.60
2022-08-30T05:39:51.324Z,19.66
2022-08-30T05:42:24.695Z,19.69
2022-08-30T05:44:55.614Z,19.82
2022-08-30T05:47:25.891Z,19.85
2022-08-30T05:49:56.061Z,19.90
2022-08-30T05:52:26.493Z,20.09
2022-08-30T05:54:59.323Z,20.02
2022-08-30T05:57:34.235Z,20.16
2022-08-30T06:00:09.151Z,20.21
2022-08-30T06:02:42.329Z,20.30
2022-08-30T06:05:14.710Z,20.24
2022-08-30T06:07:45.332Z,20.44
2022-08-30T06:10:15.542Z,20.52
2022-08-30T06:12:50.252Z,20.58
2022-08-30T06:15:20.858Z,20.55
2022-08-30T06:17:51.312Z,20.57
2022-08-30T06:20:21.656Z,20.71
2022-08-30T06:22:51.773Z,20.62
2022-08-30T06:25:22.331Z,20.90
2022-08-30T06:27:56.581Z,20.99
2022-08-30T06:30:27.115Z,21.04
2022-08-30T06:32:57.291Z,21.07
2022-08-30T06:35:28.772Z,21.12
2022-08-30T06:37:59.166Z,21.18
2022-08-30T06:40:29.719Z,21.27
2022-08-30T06:43:02.789Z,21.28
2022-08-30T06:45:37.333Z,21.49
2022-08-30T06:48:07.922Z,21.63
2022-08-30T06:50:38.099Z,21.44
2022-08-30T06:53:08.338Z,21.50
2022-08-30T06:55:39.830Z,21.51
2022-08-30T06:58:13.294Z,21.65
2022-08-30T07:00:43.768Z,21.70
2022-08-30T07:03:14.137Z,21.62
2022-08-30T07:05:44.517Z,21.85
2022-08-30T07:08:14.835Z,21.99
2022-08-30T07:10:45.531Z,21.99
2022-08-30T07:13:20.030Z,21.92
2022-08-30T07:15:51.705Z,22.17
2022-08-30T07:18:34.291Z,22.22
2022-08-30T07:21:11.343Z,21.98
2022-08-30T07:23:41.550Z,22.23
2022-08-30T07:26:13.848Z,22.11
2022-08-30T07:28:48.853Z,22.34
2022-08-30T07:31:26.385Z,22.43
2022-08-30T07:33:57.109Z,22.66
2022-08-30T07:36:27.516Z,22.77
2022-08-30T07:38:57.933Z,22.93
2022-08-30T07:41:30.461Z,23.04
2022-08-30T07:44:03.392Z,23.28
2022-08-30T07:46:33.849Z,23.33
2022-08-30T07:49:04.589Z,23.67
2022-08-30T07:51:35.574Z,24.01
2022-08-30T07:54:07.176Z,24.27
2022-08-30T07:56:37.981Z,24.14
2022-08-30T07:59:10.775Z,24.43
2022-08-30T08:01:41.094Z,24.77
2022-08-30T08:04:12.393Z,24.58
2022-08-30T08:06:45.501Z,25.04
2022-08-30T08:09:18.528Z,25.16
2022-08-30T08:11:48.927Z,24.92
2022-08-30T08:14:23.554Z,24.96
2022-08-30T08:16:53.961Z,25.13
2022-08-30T08:19:24.165Z,24.84
2022-08-30T08:22:15.641Z,25.00
2022-08-30T08:24:48.062Z,24.73
2022-08-30T08:27:18.732Z,24.95
2022-08-30T08:29:51.862Z,25.04
2022-08-30T08:32:22.310Z,24.89
2022-08-30T08:34:52.670Z,25.21
2022-08-30T08:37:27.882Z,25.26
2022-08-30T08:39:58.339Z,25.32
2022-08-30T08:42:40.023Z,25.32
2022-08-30T08:45:16.727Z,25.40
2022-08-30T08:48:04.740Z,25.59
2022-08-30T08:50:36.048Z,25.74
2022-08-30T08:53:51.726Z,25.88
2022-08-30T08:56:24.787Z,25.85
2022-08-30T08:58:57.631Z,26.03
2022-08-30T09:01:33.714Z,25.84
2022-08-30T09:04:09.827Z,26.52
2022-08-30T09:06:52.662Z,26.44
2022-08-30T09:09:30.375Z,26.60
2022-08-30T09:12:00.952Z,26.58
2022-08-30T09:14:36.370Z,26.61
2022-08-30T09:17:11.612Z,26.85
2022-08-30T09:19:45.746Z,26.92
2022-08-30T09:22:26.163Z,26.86
2022-08-30T09:25:02.800Z,27.05
2022-08-30T09:27:38.477Z,26.95
2022-08-30T09:30:14.839Z,27.05
2022-08-30T09:32:55.300Z,27.06
2022-08-30T09:35:28.309Z,27.34
2022-08-30T09:37:59.533Z,27.41
2022-08-30T09:40:34.734Z,27.36
2022-08-30T09:43:13.478Z,26.89
2022-08-30T09:45:47.493Z,26.51
2022-08-30T09:48:45.090Z,26.59
2022-08-30T09:51:47.112Z,26.95
2022-08-30T09:54:25.504Z,26.96
2022-08-30T09:57:11.609Z,27.34
2022-08-30T09:59:50.634Z,26.91
2022-08-30T10:02:35.673Z,26.89
2022-08-30T10:05:16.378Z,26.88
2022-08-30T10:07:58.713Z,27.00
2022-08-30T10:10:35.798Z,27.19
2022-08-30T10:13:28.544Z,27.56
2022-08-30T10:16:05.323Z,27.42
2022-08-30T10:18:42.235Z,27.39
2022-08-30T10:21:25.656Z,27.60
2022-08-30T10:24:01.490Z,27.97
2022-08-30T10:26:34.775Z,27.26
2022-08-30T10:29:09.920Z,27.80
2022-08-30T10:31:45.738Z,27.77
2022-08-30T10:34:20.935Z,27.84
2022-08-30T10:36:59.979Z,28.20
2022-08-30T10:39:34.737Z,27.67
2022-08-30T10:42:10.399Z,28.08
2022-08-30T10:44:44.798Z,28.48
2022-08-30T10:47:27.523Z,28.20
2022-08-30T10:50:04.513Z,28.24
2022-08-30T10:52:45.908Z,28.69
2022-08-30T10:55:18.970Z,28.81
2022-08-30T10:57:49.293Z,28.46
2022-08-30T11:00:27.748Z,28.56
2022-08-30T11:03:31.473Z,28.60
2022-08-30T11:06:16.042Z,28.46
2022-08-30T11:09:23.296Z,28.48
2022-08-30T11:12:22.672Z,28.77
2022-08-30T11:14:55.531Z,28.72
2022-08-30T11:17:34.018Z,28.89
2022-08-30T11:20:07.286Z,28.88
2022-08-30T11:22:40.136Z,28.80
2022-08-30T11:25:18.341Z,29.12
2022-08-30T11:27:53.971Z,29.24
2022-08-30T11:30:55.243Z,29.37
2022-08-30T11:33:46.215Z,29.51
2022-08-30T11:36:51.746Z,29.42
2022-08-30T11:39:51.565Z,29.40
2022-08-30T11:42:36.769Z,29.10
2022-08-30T11:45:37.067Z,29.05
2022-08-30T11:48:10.219Z,29.06
2022-08-30T11:50:55.393Z,29.14
2022-08-30T11:53:34.848Z,29.48
2022-08-30T11:56:13.419Z,29.28
2022-08-30T11:58:57.934Z,29.56
2022-08-30T12:01:49.892Z,28.87
2022-08-30T12:04:31.742Z,28.77
2022-08-30T12:07:05.089Z,28.98
2022-08-30T12:10:07.717Z,28.86
2022-08-30T12:12:55.797Z,29.24
2022-08-30T12:15:58.043Z,28.99
2022-08-30T12:18:44.448Z,28.80
2022-08-30T12:21:31.314Z,29.52
2022-08-30T12:24:21.623Z,29.32
2022-08-30T12:26:53.750Z,29.27
2022-08-30T12:29:27.616Z,28.74
2022-08-30T12:32:03.458Z,28.96
2022-08-30T12:34:40.528Z,29.40
2022-08-30T12:37:14.179Z,29.22
2022-08-30T12:39:53.762Z,29.31
2022-08-30T12:42:27.159Z,29.25
2022-08-30T12:45:00.772Z,29.22
2022-08-30T12:47:40.725Z,29.65
2022-08-30T12:50:15.168Z,29.43
2022-08-30T12:52:48.098Z,29.50
2022-08-30T12:55:21.320Z,29.24
2022-08-30T12:58:02.841Z,29.02
2022-08-30T13:00:35.935Z,29.22
2022-08-30T13:03:32.459Z,29.23
2022-08-30T13:06:02.962Z,29.42
2022-08-30T13:08:37.617Z,29.29
2022-08-30T13:11:11.700Z,29.44
2022-08-30T13:13:45.257Z,28.92
2022-08-30T13:16:29.450Z,29.35
2022-08-30T13:19:29.595Z,29.34
2022-08-30T13:22:01.786Z,29.38
2022-08-30T13:24:32.671Z,29.55
2022-08-30T13:27:11.535Z,29.56
2022-08-30T13:29:41.813Z,29.52
2022-08-30T13:32:13.924Z,29.58
2022-08-30T13:34:47.775Z,29.55
2022-08-30T13:40:14.768Z,29.48
2022-08-30T13:42:45.377Z,29.30
2022-08-30T13:48:10.934Z,29.01
2022-08-30T13:50:44.038Z,29.15
2022-08-30T13:53:14.636Z,28.53
2022-08-30T13:55:46.165Z,29.21
2022-08-30T13:58:19.836Z,29.45
2022-08-30T14:00:53.724Z,29.56
2022-08-30T14:03:24.230Z,29.28
2022-08-30T14:06:15.865Z,29.37
2022-08-30T14:08:47.663Z,29.29
2022-08-30T14:11:20.858Z,29.12
2022-08-30T14:16:44.752Z,28.83
2022-08-30T14:19:16.124Z,28.93
2022-08-30T14:21:49.877Z,29.19
2022-08-30T14:24:21.387Z,29.20
2022-08-30T14:26:53.340Z,29.27
2022-08-30T14:29:26.337Z,28.92
2022-08-30T14:32:00.547Z,28.78
2022-08-30T14:34:31.230Z,28.71
2022-08-30T14:37:07.053Z,28.68
2022-08-30T14:39:39.460Z,28.51
2022-08-30T14:42:11.918Z,28.62
2022-08-30T14:44:56.624Z,28.80
2022-08-30T14:47:29.750Z,28.92
2022-08-30T14:50:02.108Z,28.55
2022-08-30T14:52:35.727Z,28.64
2022-08-30T14:55:08.964Z,28.59
2022-08-30T14:57:39.686Z,28.61
2022-08-30T15:00:12.822Z,28.47
2022-08-30T15:02:42.975Z,28.29
2022-08-30T15:05:13.377Z,28.46
2022-08-30T15:07:47.512Z,28.48
2022-08-30T15:10:20.240Z,28.35
2022-08-30T15:12:50.910Z,28.41
2022-08-30T15:15:25.826Z,28.09
2022-08-30T15:17:55.993Z,28.16
2022-08-30T15:20:27.655Z,28.21
2022-08-30T15:23:00.494Z,28.22
2022-08-30T15:25:31.099Z,28.25
2022-08-30T15:28:01.308Z,27.91
2022-08-30T15:30:31.760Z,27.77
2022-08-30T15:33:02.302Z,27.79
2022-08-30T15:35:32.530Z,27.84
2022-08-30T15:38:06.069Z,27.70
2022-08-30T15:40:39.154Z,27.76
2022-08-30T15:43:09.443Z,27.74
2022-08-30T15:45:39.997Z,27.84
2022-08-30T15:48:10.440Z,27.79
2022-08-30T15:50:41.415Z,27.61
2022-08-30T15:53:14.911Z,27.51
2022-08-30T15:55:45.075Z,27.62
2022-08-30T15:58:15.494Z,27.40
2022-08-30T16:00:47.390Z,27.35
2022-08-30T16:03:17.834Z,27.26
2022-08-30T16:05:51.812Z,27.12
2022-08-30T16:08:25.752Z,27.13
2022-08-30T16:10:56.417Z,27.28
2022-08-30T16:13:27.141Z,27.25
2022-08-30T16:15:57.949Z,27.05
2022-08-30T16:18:28.201Z,27.16
2022-08-30T16:21:05.723Z,27.13
2022-08-30T16:23:40.540Z,26.87
2022-08-30T16:26:17.272Z,26.81
2022-08-30T16:28:49.453Z,26.81
2022-08-30T16:31:21.211Z,26.82
2022-08-30T16:33:53.116Z,26.99
2022-08-30T16:36:26.562Z,26.73
2022-08-30T16:39:01.499Z,26.73
2022-08-30T16:41:32.756Z,26.68
2022-08-30T16:44:05.241Z,26.55
2022-08-30T16:46:36.204Z,26.37
2022-08-30T16:49:08.897Z,26.35
2022-08-30T16:51:40.170Z,26.31
2022-08-30T16:54:14.292Z,26.51
2022-08-30T16:56:45.725Z,26.23
2022-08-30T16:59:17.057Z,26.00
2022-08-30T17:01:48.172Z,25.92
2022-08-30T17:04:19.768Z,25.71
2022-08-30T17:06:52.284Z,25.59
2022-08-30T17:09:25.704Z,25.38
2022-08-30T17:11:56.426Z,25.21
2022-08-30T17:14:29.375Z,25.02
2022-08-30T17:17:00.888Z,24.78
2022-08-30T17:19:33.171Z,24.74
2022-08-30T17:22:05.153Z,24.54
2022-08-30T17:24:41.134Z,24.40
2022-08-30T17:27:11.807Z,24.28
2022-08-30T17:29:42.445Z,24.20
2022-08-30T17:32:12.909Z,24.15
2022-08-30T17:34:43.304Z,24.06
2022-08-30T17:37:13.819Z,24.02
2022-08-30T17:39:47.205Z,23.88
2022-08-30T17:42:18.051Z,23.79
2022-08-30T17:44:48.445Z,23.73
2022-08-30T17:47:19.023Z,23.64
2022-08-30T17:49:50.333Z,23.59
2022-08-30T17:52:20.876Z,23.51
2022-08-30T17:54:53.775Z,23.38
2022-08-30T17:57:24.201Z,23.26
2022-08-30T17:59:54.742Z,23.32
2022-08-30T18:02:29.874Z,23.38
2022-08-30T18:05:03.576Z,23.48
2022-08-30T18:07:34.344Z,23.61
2022-08-30T18:10:10.279Z,23.57
2022-08-30T18:12:41.028Z,23.61
2022-08-30T18:15:18.155Z,23.65
2022-08-30T18:17:49.437Z,23.67
2022-08-30T18:20:21.360Z,23.77
2022-08-30T18:22:56.740Z,23.58
2022-08-30T18:25:31.162Z,23.42
2022-08-30T18:28:01.874Z,23.27
2022-08-30T18:30:39.851Z,23.19
2022-08-30T18:33:11.609Z,23.22
2022-08-30T18:35:47.500Z,23.19
2022-08-30T18:38:19.464Z,23.10
2022-08-30T18:41:02.414Z,23.06
2022-08-30T18:43:33.398Z,22.98
2022-08-30T18:46:07.025Z,22.90
2022-08-30T18:48:40.510Z,22.84
2022-08-30T18:51:15.040Z,22.78
2022-08-30T18:53:46.805Z,22.75
2022-08-30T18:56:20.606Z,22.76
2022-08-30T18:58:53.191Z,22.77
2022-08-30T19:01:23.637Z,22.71
2022-08-30T19:03:54.419Z,22.75
2022-08-30T19:06:25.099Z,22.68
2022-08-30T19:08:55.917Z,22.69
2022-08-30T19:11:29.200Z,22.69
2022-08-30T19:13:59.922Z,22.59
2022-08-30T19:16:30.562Z,22.51
2022-08-30T19:19:01.365Z,22.53
2022-08-30T19:21:32.082Z,22.61
2022-08-30T19:24:04.144Z,22.65
2022-08-30T19:26:38.832Z,22.68
2022-08-30T19:29:09.761Z,22.65
2022-08-30T19:31:41.666Z,22.53
2022-08-30T19:34:12.176Z,22.53
2022-08-30T19:36:42.706Z,22.58
2022-08-30T19:39:15.463Z,22.47
2022-08-30T19:41:51.003Z,22.56
2022-08-30T19:44:21.801Z,22.50
2022-08-30T19:46:56.771Z,22.37
2022-08-30T19:49:27.454Z,22.37
2022-08-30T19:51:58.075Z,22.35
2022-08-30T19:54:28.829Z,22.28
2022-08-30T19:57:02.330Z,22.29
2022-08-30T19:59:32.741Z,22.21
2022-08-30T20:02:03.767Z,22.15
2022-08-30T20:04:34.636Z,22.06
2022-08-30T20:07:05.202Z,22.09
2022-08-30T20:09:37.910Z,22.03
2022-08-30T20:12:12.030Z,22.06
2022-08-30T20:14:42.735Z,22.06
2022-08-30T20:17:13.203Z,22.05
2022-08-30T20:19:43.744Z,21.94
2022-08-30T20:22:15.227Z,21.89
2022-08-30T20:24:45.926Z,21.78
2022-08-30T20:27:19.188Z,21.82
2022-08-30T20:29:49.545Z,21.82
2022-08-30T20:32:20.245Z,21.86
2022-08-30T20:34:51.186Z,21.81
2022-08-30T20:37:23.345Z,21.79
2022-08-30T20:39:59.640Z,21.72
2022-08-30T20:42:33.018Z,21.68
2022-08-30T20:45:03.246Z,21.63
2022-08-30T20:47:35.235Z,21.59
2022-08-30T20:50:10.935Z,21.53
2022-08-30T20:52:45.100Z,21.52
2022-08-30T20:55:17.977Z,21.52
2022-08-30T20:57:51.425Z,21.63
2022-08-30T21:00:23.200Z,21.57
2022-08-30T21:02:54.198Z,21.47
2022-08-30T21:05:24.628Z,21.44
2022-08-30T21:07:55.347Z,21.37
2022-08-30T21:10:26.344Z,21.30
2022-08-30T21:12:59.580Z,21.29
2022-08-30T21:15:38.408Z,21.24
2022-08-30T21:18:11.212Z,21.14
2022-08-30T21:20:41.937Z,21.18
2022-08-30T21:23:12.683Z,21.08
2022-08-30T21:25:44.050Z,21.10
2022-08-30T21:28:17.977Z,21.08
2022-08-30T21:30:49.534Z,21.00
2022-08-30T21:33:20.120Z,20.98
2022-08-30T21:36:02.792Z,20.99
2022-08-30T21:38:33.236Z,21.06
2022-08-30T21:41:04.068Z,20.98
2022-08-30T21:43:37.723Z,21.04
2022-08-30T21:46:09.723Z,21.04
2022-08-30T21:48:40.504Z,21.05
2022-08-30T21:51:12.438Z,21.00
2022-08-30T21:53:42.988Z,20.94
2022-08-30T21:56:21.304Z,20.95
2022-08-30T21:58:55.112Z,20.85
2022-08-30T22:01:27.052Z,20.88
2022-08-30T22:04:00.393Z,20.91
2022-08-30T22:06:32.768Z,20.90
2022-08-30T22:09:05.026Z,20.94
2022-08-30T22:11:36.491Z,20.80
2022-08-30T22:14:10.320Z,20.77
2022-08-30T22:16:42.931Z,20.73
2022-08-30T22:19:13.456Z,20.70
2022-08-30T22:21:45.396Z,20.72
2022-08-30T22:24:16.617Z,20.64
2022-08-30T22:26:49.110Z,20.59
2022-08-30T22:29:23.460Z,20.60
2022-08-30T22:31:54.437Z,20.54
2022-08-30T22:34:25.159Z,20.47
2022-08-30T22:36:55.878Z,20.42
2022-08-30T22:39:26.289Z,20.43
2022-08-30T22:41:57.061Z,20.43
2022-08-30T22:44:30.485Z,20.41
2022-08-30T22:47:00.607Z,20.32
2022-08-30T22:49:31.325Z,20.34
2022-08-30T22:52:01.845Z,20.31
2022-08-30T22:54:33.407Z,20.30
2022-08-30T22:57:04.519Z,20.26
2022-08-30T22:59:38.097Z,20.30
2022-08-30T23:02:08.332Z,20.21
2022-08-30T23:04:39.945Z,20.16
2022-08-30T23:07:10.490Z,20.18
2022-08-30T23:09:41.017Z,20.14
2022-08-30T23:12:11.767Z,20.02
2022-08-30T23:14:45.056Z,19.99
2022-08-30T23:17:15.685Z,19.96
2022-08-30T23:19:46.092Z,19.89
2022-08-30T23:22:16.586Z,19.90
2022-08-30T23:24:59.090Z,19.87
2022-08-30T23:27:41.876Z,19.80
2022-08-30T23:30:28.511Z,19.77
2022-08-30T23:33:11.530Z,19.71
2022-08-30T23:35:54.603Z,19.73
2022-08-30T23:38:37.459Z,19.65
2022-08-30T23:41:20.192Z,19.57
2022-08-30T23:44:02.733Z,19.57
2022-08-30T23:46:48.116Z,19.55
2022-08-30T23:49:30.811Z,19.45
2022-08-30T23:52:13.600Z,19.34
2022-08-30T23:54:57.487Z,19.33
2022-08-30T23:57:41.613Z,19.31
